Flight Track Log - Related Links

Times and Time Zones

All times are in EDT time to prevent confusion due to time zone crossing. See the FLG3493 flight status page for this flight to view local times or setup timezone preferences in your user account.

Time Position Orientation Groundspeed Altitude Reporting Facility
EDT Latitude Longitude Course Direction KTS MPH feet Rate Location/Type
Wed 11:22:16 AM 40.7500 -73.8500 114° Southeast 153 176 1,400  Level New York TRACON
Wed 11:23:16 AM 40.7333 -73.8000 114° Southeast 214 246 3,300 1,950 Climbing New York TRACON
Wed 11:24:16 AM 40.8000 -73.7500 30° Northeast 257 296 5,300 1,850 Climbing New York TRACON
Wed 11:25:16 AM 40.8500 -73.7833 333° Northwest 288 331 7,000 1,400 Climbing New York TRACON
Wed 11:26:16 AM 40.8500 -73.8833 270° West 275 316 8,100 1,842 Climbing New York TRACON
Wed 11:27:10 AM 40.8333 -73.9833 258° West 283 326 10,500 2,105 Climbing New York TRACON
Wed 11:28:10 AM 40.8000 -74.1000 249° West 334 384 12,100 1,990 Climbing New York TRACON
Wed 11:30:26 AM 40.7153 -74.3603 247° West 354 407 17,000 1,929 Climbing New York Center
Wed 11:31:26 AM 40.6664 -74.4644 238° Southwest 373 429 18,400 1,750 Climbing New York Center
Wed 11:32:26 AM 40.6061 -74.5897 238° Southwest 378 435 20,500 1,736 Climbing New York Center
Wed 11:33:27 AM 40.5481 -74.7094 237° Southwest 383 441 21,900 1,500 Climbing New York Center
Wed 11:34:26 AM 40.4919 -74.8289 238° Southwest 388 447 23,500 1,462 Climbing New York Center
Wed 11:35:26 AM 40.4311 -74.9536 237° Southwest 400 460 24,800 1,350 Climbing New York Center
Wed 11:36:26 AM 40.3542 -75.0689 229° Southwest 410 472 26,200 1,400 Climbing New York Center
Wed 11:37:26 AM 40.2750 -75.1808 227° Southwest 421 484 27,600 1,200 Climbing New York Center
Wed 11:38:26 AM 40.2022 -75.2850 228° Southwest 433 498 28,600 1,300 Climbing New York Center
Wed 11:39:26 AM 40.1186 -75.3989 226° Southwest 433 498 30,200 1,450 Climbing New York Center
Wed 11:40:26 AM 40.0369 -75.5128 227° Southwest 433 498 31,500 1,450 Climbing New York Center
Wed 11:41:26 AM 39.9553 -75.6264 227° Southwest 438 504 33,100 1,400 Climbing New York Center
Wed 11:42:26 AM 39.8775 -75.7428 229° Southwest 433 498 34,300 1,200 Climbing New York Center
Wed 11:43:26 AM 39.7992 -75.8669 231° Southwest 438 504 35,500 1,138 Climbing New York Center
Wed 11:45:20 AM 39.6542 -76.0956 231° Southwest 422 486 37,600 857 Climbing Washington Center
Wed 11:46:21 AM 39.5786 -76.2108 230° Southwest 428 493 38,000 198 Climbing Washington Center
Wed 11:47:21 AM 39.5031 -76.3339 232° Southwest 428 493 38,000  Level Washington Center
Wed 11:48:22 AM 39.4250 -76.4567 231° Southwest 434 499 38,000  Level Washington Center
Wed 11:49:22 AM 39.3428 -76.5764 228° Southwest 439 505 38,000  Level Washington Center
Wed 11:50:20 AM 39.2625 -76.7014 230° Southwest 451 519 38,000  Level Washington Center
Wed 11:51:20 AM 39.1842 -76.8233 230° Southwest 451 519 38,000  Level Washington Center
Wed 11:52:21 AM 39.1100 -76.9397 231° Southwest 451 519 38,000  Level Washington Center
Wed 11:53:21 AM 39.0253 -77.0558 227° Southwest 446 513 38,000  Level Washington Center
Wed 11:54:21 AM 38.9325 -77.1581 221° Southwest 446 513 38,000  Level Washington Center
Wed 11:55:22 AM 38.8392 -77.2600 220° Southwest 446 513 38,000  Level Washington Center
Wed 11:56:22 AM 38.7439 -77.3644 221° Southwest 446 513 38,000  Level Washington Center
Wed 11:57:20 AM 38.6592 -77.4581 221° Southwest 446 513 38,000  Level Washington Center
Wed 11:58:21 AM 38.5617 -77.5644 220° Southwest 451 519 38,000  Level Washington Center
Wed 11:59:22 AM 38.4681 -77.6681 221° Southwest 456 525 38,000  Level Washington Center
Wed 12:00:20 PM 38.3725 -77.7714 220° Southwest 462 532 38,000  Level Washington Center
Wed 12:01:21 PM 38.2744 -77.8769 220° Southwest 462 532 38,000  Level Washington Center
Wed 12:02:22 PM 38.1808 -77.9797 221° Southwest 462 532 38,000  Level Washington Center
Wed 12:03:22 PM 38.0828 -78.0847 220° Southwest 462 532 38,000  Level Washington Center
Wed 12:04:20 PM 37.9847 -78.1842 219° Southwest 462 532 38,000  Level Washington Center
Wed 12:05:21 PM 37.8867 -78.2781 217° Southwest 457 526 38,000  Level Washington Center
Wed 12:06:22 PM 37.7844 -78.3744 217° Southwest 457 526 38,000  Level Washington Center
Wed 12:07:22 PM 37.6861 -78.4706 218° Southwest 457 526 38,000  Level Washington Center
Wed 12:08:20 PM 37.5731 -78.5736 216° Southwest 462 532 38,000  Level Washington Center
Wed 12:09:20 PM 37.4706 -78.6692 217° Southwest 467 537 38,000  Level Washington Center
Wed 12:10:21 PM 37.3681 -78.7642 216° Southwest 467 537 38,000  Level Washington Center
Wed 12:11:22 PM 37.2675 -78.8567 216° Southwest 467 537 38,000  Level Washington Center
Wed 12:12:20 PM 37.1753 -78.9439 217° Southwest 467 537 38,000  Level Washington Center
Wed 12:13:20 PM 37.0747 -79.0358 216° Southwest 467 537 38,000  Level Washington Center
Wed 12:14:22 PM 36.9717 -79.1328 217° Southwest 467 537 38,000  Level Washington Center
Wed 12:15:22 PM 36.8731 -79.2242 217° Southwest 467 537 38,000  Level Washington Center
Wed 12:16:20 PM 36.7722 -79.3156 216° Southwest 462 532 38,000  Level Washington Center
Wed 12:17:21 PM 36.6625 -79.4164 216° Southwest 462 532 38,000  Level Washington Center
Wed 12:18:22 PM 36.5636 -79.5072 216° Southwest 455 524 38,000  Level Washington Center
Wed 12:19:57 PM 36.4092 -79.6456 216° Southwest 455 524 38,000  Level Atlanta Center
Wed 12:20:57 PM 36.3083 -79.7386 217° Southwest 460 529 38,000  Level Atlanta Center
Wed 12:21:57 PM 36.2092 -79.8289 216° Southwest 460 529 38,000  Level Atlanta Center
Wed 12:22:57 PM 36.1081 -79.9189 216° Southwest 460 529 38,000  Level Atlanta Center
Wed 12:23:57 PM 35.9875 -79.9994 208° Southwest 460 529 38,000  Level Atlanta Center
Wed 12:24:57 PM 35.8728 -80.0617 204° Southwest 450 518 38,000  Level Atlanta Center
Wed 12:25:57 PM 35.7581 -80.1208 203° Southwest 450 518 38,000  Level Atlanta Center
Wed 12:26:57 PM 35.6408 -80.1803 202° Southwest 455 524 38,000  Level Atlanta Center
Wed 12:27:57 PM 35.5239 -80.2367 201° Southwest 455 524 38,000  Level Atlanta Center
Wed 12:28:57 PM 35.4067 -80.2981 203° Southwest 455 524 38,000  Level Atlanta Center
Wed 12:29:57 PM 35.2894 -80.3544 201° Southwest 449 517 38,000  Level Atlanta Center
Wed 12:30:57 PM 35.1725 -80.4156 203° Southwest 449 517 38,000  Level Atlanta Center
Wed 12:32:43 PM 34.9781 -80.5111 202° Southwest 438 504 38,000  Level Jacksonville Center
Wed 12:33:43 PM 34.8497 -80.5753 202° Southwest 450 518 38,000  Level Jacksonville Center
Wed 12:34:42 PM 34.7506 -80.6261 203° Southwest 445 512 38,000  Level Jacksonville Center
Wed 12:35:42 PM 34.6328 -80.6822 201° Southwest 445 512 38,000  Level Jacksonville Center
Wed 12:36:43 PM 34.4961 -80.7461 201° Southwest 474 545 38,000  Level Jacksonville Center
Wed 12:37:42 PM 34.3783 -80.8119 205° Southwest 466 536 38,000  Level Jacksonville Center
Wed 12:38:43 PM 34.2747 -80.8572 200° South 467 537 38,000  Level Jacksonville Center
Wed 12:39:43 PM 34.1631 -80.9125 202° Southwest 451 519 38,000  Level Jacksonville Center
Wed 12:40:42 PM 34.0428 -80.9678 201° Southwest 451 519 38,000  Level Jacksonville Center
Wed 12:41:42 PM 33.9247 -81.0256 202° Southwest 456 525 38,000  Level Jacksonville Center
Wed 12:42:43 PM 33.7942 -81.0833 200° South 456 525 38,000  Level Jacksonville Center
Wed 12:43:42 PM 33.6906 -81.1403 205° Southwest 456 525 38,000  Level Jacksonville Center
Wed 12:44:42 PM 33.5706 -81.2025 203° Southwest 456 525 38,000  Level Jacksonville Center
Wed 12:45:43 PM 33.4522 -81.2594 202° Southwest 456 525 38,000  Level Jacksonville Center
Wed 12:46:42 PM 33.3342 -81.3164 202° Southwest 456 525 38,000  Level Jacksonville Center
Wed 12:47:43 PM 33.2281 -81.3628 200° South 456 525 38,000  Level Jacksonville Center
Wed 12:48:43 PM 33.0975 -81.4322 204° Southwest 456 525 38,000  Level Jacksonville Center
Wed 12:49:43 PM 32.9792 -81.4911 203° Southwest 456 525 38,000  Level Jacksonville Center
Wed 12:50:43 PM 32.8608 -81.5472 202° Southwest 456 525 38,000  Level Jacksonville Center
Wed 12:51:42 PM 32.7425 -81.6033 202° Southwest 461 531 38,000  Level Jacksonville Center
Wed 12:52:42 PM 32.6242 -81.6642 203° Southwest 461 531 38,000  Level Jacksonville Center
Wed 12:53:42 PM 32.4889 -81.7250 201° Southwest 467 537 38,000  Level Jacksonville Center
Wed 12:54:42 PM 32.3789 -81.7783 202° Southwest 472 543 38,000  Level Jacksonville Center
Wed 12:55:42 PM 32.2456 -81.8389 201° Southwest 477 549 38,000  Level Jacksonville Center
Wed 12:56:42 PM 32.1250 -81.8992 203° Southwest 468 539 38,000  Level Jacksonville Center
Wed 12:57:43 PM 32.0003 -81.9567 201° Southwest 478 550 38,000  Level Jacksonville Center
Wed 12:58:42 PM 31.8817 -82.0069 200° South 467 537 38,000  Level Jacksonville Center
Wed 12:59:43 PM 31.7711 -82.0494 198° South 462 532 38,000  Level Jacksonville Center
Wed 01:00:42 PM 31.6381 -82.1044 199° South 462 532 38,000  Level Jacksonville Center
Wed 01:01:43 PM 31.5361 -82.1614 205° Southwest 457 526 38,000  Level Jacksonville Center
Wed 01:02:42 PM 31.4236 -82.2353 209° Southwest 457 526 38,000  Level Jacksonville Center
Wed 01:03:43 PM 31.3092 -82.3042 207° Southwest 467 537 38,000  Level Jacksonville Center
Wed 01:04:43 PM 31.1947 -82.3778 209° Southwest 467 537 38,000  Level Jacksonville Center
Wed 01:05:43 PM 31.0694 -82.4122 193° South 455 524 38,000  Level Jacksonville Center
Wed 01:06:42 PM 30.9464 -82.4444 193° South 460 529 38,000  Level Jacksonville Center
Wed 01:07:42 PM 30.8211 -82.4814 194° South 460 529 38,000  Level Jacksonville Center
Wed 01:08:42 PM 30.7003 -82.5375 202° Southwest 460 529 38,000  Level Jacksonville Center
Wed 01:09:43 PM 30.5836 -82.5933 202° Southwest 460 529 38,000  Level Jacksonville Center
Wed 01:10:42 PM 30.4522 -82.6419 198° South 460 529 38,000  Level Jacksonville Center
Wed 01:11:42 PM 30.3269 -82.6350 177° South 454 522 38,000  Level Jacksonville Center
Wed 01:12:43 PM 30.2139 -82.6114 170° South 444 511 38,000  Level Jacksonville Center
Wed 01:13:43 PM 30.0803 -82.5733 166° South 444 511 38,000 -1,250 Level Jacksonville Center
Wed 01:14:43 PM 29.9633 -82.5378 165° South 449 517 35,500 -2,750 Descending Jacksonville Center
Wed 01:15:43 PM 29.8422 -82.5022 166° South 449 517 32,500 -3,076 Descending Jacksonville Center
Wed 01:16:42 PM 29.7167 -82.4717 168° South 449 517 29,400 -2,773 Descending Jacksonville Center
Wed 01:17:42 PM 29.5933 -82.4389 167° South 449 517 27,000 -1,190 Descending Jacksonville Center
Wed 01:18:43 PM 29.4828 -82.4106 167° South 449 517 27,000 -744 Level Jacksonville Center
Wed 01:19:43 PM 29.3553 -82.3756 167° South 460 529 25,500 -1,008 Descending Jacksonville Center
Wed 01:20:42 PM 29.2342 -82.3453 168° South 460 529 25,000 -857 Descending Jacksonville Center
Wed 01:21:42 PM 29.1128 -82.3125 167° South 450 518 23,800 -1,091 Descending Jacksonville Center
Wed 01:22:43 PM 28.9978 -82.2825 167° South 445 512 22,800 -2,100 Descending Jacksonville Center
Wed 01:23:42 PM 28.8872 -82.2522 167° South 431 496 19,600 -2,986 Descending Jacksonville Center
Wed 01:26:18 PM 28.6000 -82.1833 168° South 367 422 12,100 -2,054 Descending Tampa TRACON
Wed 01:27:24 PM 28.5000 -82.1667 172° South 349 402 12,000 -50 Descending Tampa TRACON
Wed 01:28:18 PM 28.4000 -82.1667 180° South 361 415 12,000  Level Tampa TRACON
Wed 01:29:18 PM 28.3000 -82.1500 172° South 366 421 12,000  Level Tampa TRACON
Wed 01:30:18 PM 28.2000 -82.1333 172° South 358 412 12,000  Level Tampa TRACON
Wed 01:31:12 PM 28.1167 -82.1333 180° South 353 406 12,000  Level Tampa TRACON
Wed 01:32:19 PM 28.0167 -82.1833 204° Southwest 351 404 12,000 -236 Level Tampa TRACON
Wed 01:33:19 PM 27.9333 -82.2333 208° Southwest 343 395 11,500 -737 Descending Tampa TRACON
Wed 01:34:13 PM 27.8500 -82.2833 208° Southwest 337 388 10,600 -789 Descending Tampa TRACON
Wed 01:35:13 PM 27.7667 -82.3500 215° Southwest 365 420 10,000 -300 Descending Tampa TRACON
Wed 01:36:13 PM 27.7000 -82.4000 214° Southwest 328 377 10,000 -800 Level Tampa TRACON
Wed 01:37:13 PM 27.6333 -82.4667 222° Southwest 293 337 8,400 -1,700 Descending Tampa TRACON
Wed 01:38:13 PM 27.5667 -82.5167 214° Southwest 278 320 6,600 -1,800 Descending Tampa TRACON
Wed 01:39:13 PM 27.5167 -82.5667 222° Southwest 230 265 4,800 -1,800 Descending Tampa TRACON
Wed 01:40:13 PM 27.4833 -82.6167 233° Southwest 208 239 3,000 -1,650 Descending Tampa TRACON
Wed 01:41:13 PM 27.4333 -82.6000 164° South 125 144 1,500 -1,316 Descending Tampa TRACON
Wed 01:42:07 PM 27.4167 -82.5833 138° Southeast 131 151 500 -1,111 Descending Tampa TRACON
Wed 01:44:00 PM 27.3954 -82.5544 180° South  Level Estimated
Wed 01:51:00 PM 27.3954 -82.5544 180° South  Level Estimated

Login

Don't have an account? Register now (free) for customized features, flight alerts, and more!